sensor_id;sensor_type;location;lat;lon;timestamp;P1;durP1;ratioP1;P2;durP2;ratioP2
40373;SDS011;26079;45.958;12.492;2023-02-26T00:02:12;5.68;;;4.13;;
40373;SDS011;26079;45.958;12.492;2023-02-26T00:04:37;5.10;;;3.00;;
40373;SDS011;26079;45.958;12.492;2023-02-26T00:07:03;2.45;;;2.20;;
40373;SDS011;26079;45.958;12.492;2023-02-26T00:09:30;3.08;;;1.80;;
40373;SDS011;26079;45.958;12.492;2023-02-26T00:11:56;1.73;;;1.58;;
40373;SDS011;26079;45.958;12.492;2023-02-26T00:14:22;4.25;;;1.10;;
40373;SDS011;26079;45.958;12.492;2023-02-26T00:16:55;1.38;;;0.93;;
40373;SDS011;26079;45.958;12.492;2023-02-26T00:19:29;1.65;;;0.88;;
40373;SDS011;26079;45.958;12.492;2023-02-26T00:21:55;3.33;;;2.00;;
40373;SDS011;26079;45.958;12.492;2023-02-26T00:24:20;5.18;;;1.60;;
40373;SDS011;26079;45.958;12.492;2023-02-26T00:26:46;4.60;;;2.30;;
40373;SDS011;26079;45.958;12.492;2023-02-26T00:29:12;3.22;;;2.22;;
40373;SDS011;26079;45.958;12.492;2023-02-26T00:31:38;2.08;;;1.88;;
40373;SDS011;26079;45.958;12.492;2023-02-26T00:34:04;6.70;;;2.45;;
40373;SDS011;26079;45.958;12.492;2023-02-26T00:42:03;5.00;;;2.00;;
40373;SDS011;26079;45.958;12.492;2023-02-26T00:44:29;4.00;;;1.98;;
40373;SDS011;26079;45.958;12.492;2023-02-26T00:46:58;4.93;;;2.72;;
40373;SDS011;26079;45.958;12.492;2023-02-26T00:52:11;4.78;;;2.28;;
40373;SDS011;26079;45.958;12.492;2023-02-26T00:54:42;3.53;;;2.17;;
40373;SDS011;26079;45.958;12.492;2023-02-26T00:57:07;3.55;;;2.10;;
40373;SDS011;26079;45.958;12.492;2023-02-26T00:59:33;5.38;;;1.95;;
40373;SDS011;26079;45.958;12.492;2023-02-26T01:01:59;2.55;;;2.10;;
40373;SDS011;26079;45.958;12.492;2023-02-26T01:04:24;1.88;;;1.55;;
40373;SDS011;26079;45.958;12.492;2023-02-26T01:06:54;3.30;;;1.80;;
40373;SDS011;26079;45.958;12.492;2023-02-26T01:09:25;3.40;;;2.53;;
40373;SDS011;26079;45.958;12.492;2023-02-26T01:11:54;5.30;;;2.72;;
40373;SDS011;26079;45.958;12.492;2023-02-26T01:14:21;2.72;;;1.85;;
40373;SDS011;26079;45.958;12.492;2023-02-26T01:22:51;3.28;;;1.20;;
40373;SDS011;26079;45.958;12.492;2023-02-26T01:25:07;8.75;;;1.20;;
40373;SDS011;26079;45.958;12.492;2023-02-26T01:27:35;1.88;;;0.95;;
40373;SDS011;26079;45.958;12.492;2023-02-26T01:30:01;1.25;;;1.15;;
40373;SDS011;26079;45.958;12.492;2023-02-26T01:38:21;0.98;;;0.50;;
40373;SDS011;26079;45.958;12.492;2023-02-26T01:49:41;4.55;;;1.50;;
40373;SDS011;26079;45.958;12.492;2023-02-26T01:55:10;0.30;;;0.30;;
40373;SDS011;26079;45.958;12.492;2023-02-26T01:57:36;0.93;;;0.77;;
40373;SDS011;26079;45.958;12.492;2023-02-26T02:00:02;0.90;;;0.35;;
40373;SDS011;26079;45.958;12.492;2023-02-26T02:02:29;2.17;;;0.50;;
40373;SDS011;26079;45.958;12.492;2023-02-26T02:04:55;0.38;;;0.38;;
40373;SDS011;26079;45.958;12.492;2023-02-26T02:07:25;0.20;;;0.20;;
40373;SDS011;26079;45.958;12.492;2023-02-26T02:09:51;0.20;;;0.20;;
40373;SDS011;26079;45.958;12.492;2023-02-26T02:31:58;0.45;;;0.45;;
40373;SDS011;26079;45.958;12.492;2023-02-26T02:34:35;0.85;;;0.63;;
40373;SDS011;26079;45.958;12.492;2023-02-26T02:39:46;0.10;;;0.10;;
40373;SDS011;26079;45.958;12.492;2023-02-26T02:44:57;1.05;;;0.30;;
40373;SDS011;26079;45.958;12.492;2023-02-26T02:47:28;2.42;;;0.50;;
40373;SDS011;26079;45.958;12.492;2023-02-26T02:50:02;0.60;;;0.30;;
40373;SDS011;26079;45.958;12.492;2023-02-26T02:52:38;1.85;;;0.65;;
40373;SDS011;26079;45.958;12.492;2023-02-26T02:55:10;0.57;;;0.40;;
40373;SDS011;26079;45.958;12.492;2023-02-26T02:57:49;0.30;;;0.30;;
40373;SDS011;26079;45.958;12.492;2023-02-26T03:00:25;0.45;;;0.38;;
40373;SDS011;26079;45.958;12.492;2023-02-26T03:05:41;2.10;;;0.90;;
40373;SDS011;26079;45.958;12.492;2023-02-26T03:08:15;0.28;;;0.28;;
40373;SDS011;26079;45.958;12.492;2023-02-26T03:10:48;2.08;;;0.47;;
40373;SDS011;26079;45.958;12.492;2023-02-26T03:13:18;0.30;;;0.25;;
40373;SDS011;26079;45.958;12.492;2023-02-26T03:20:56;0.30;;;0.30;;
40373;SDS011;26079;45.958;12.492;2023-02-26T03:23:31;0.82;;;0.30;;
40373;SDS011;26079;45.958;12.492;2023-02-26T03:26:11;0.50;;;0.50;;
40373;SDS011;26079;45.958;12.492;2023-02-26T03:28:53;0.40;;;0.40;;
40373;SDS011;26079;45.958;12.492;2023-02-26T03:31:34;0.13;;;0.13;;
40373;SDS011;26079;45.958;12.492;2023-02-26T03:36:50;0.45;;;0.40;;
40373;SDS011;26079;45.958;12.492;2023-02-26T03:39:24;0.50;;;0.40;;
40373;SDS011;26079;45.958;12.492;2023-02-26T03:42:02;0.20;;;0.20;;
40373;SDS011;26079;45.958;12.492;2023-02-26T03:44:36;0.80;;;0.17;;
40373;SDS011;26079;45.958;12.492;2023-02-26T03:47:10;0.40;;;0.15;;
40373;SDS011;26079;45.958;12.492;2023-02-26T03:49:54;1.17;;;0.20;;
40373;SDS011;26079;45.958;12.492;2023-02-26T03:52:24;0.98;;;0.22;;
40373;SDS011;26079;45.958;12.492;2023-02-26T03:54:59;0.60;;;0.40;;
40373;SDS011;26079;45.958;12.492;2023-02-26T03:57:29;0.20;;;0.20;;
40373;SDS011;26079;45.958;12.492;2023-02-26T03:59:55;0.32;;;0.10;;
40373;SDS011;26079;45.958;12.492;2023-02-26T04:02:23;0.30;;;0.15;;
40373;SDS011;26079;45.958;12.492;2023-02-26T04:04:57;0.05;;;0.05;;
40373;SDS011;26079;45.958;12.492;2023-02-26T04:07:25;0.10;;;0.10;;
40373;SDS011;26079;45.958;12.492;2023-02-26T04:09:53;0.22;;;0.20;;
40373;SDS011;26079;45.958;12.492;2023-02-26T04:12:22;0.20;;;0.13;;
40373;SDS011;26079;45.958;12.492;2023-02-26T04:14:50;0.22;;;0.20;;
40373;SDS011;26079;45.958;12.492;2023-02-26T04:17:16;0.20;;;0.20;;
40373;SDS011;26079;45.958;12.492;2023-02-26T04:19:41;0.30;;;0.22;;
40373;SDS011;26079;45.958;12.492;2023-02-26T04:22:07;0.85;;;0.20;;
40373;SDS011;26079;45.958;12.492;2023-02-26T04:24:33;0.10;;;0.10;;
40373;SDS011;26079;45.958;12.492;2023-02-26T04:26:59;0.30;;;0.30;;
40373;SDS011;26079;45.958;12.492;2023-02-26T04:29:25;1.15;;;0.30;;
40373;SDS011;26079;45.958;12.492;2023-02-26T04:31:51;0.13;;;0.13;;
40373;SDS011;26079;45.958;12.492;2023-02-26T04:34:17;0.55;;;0.13;;
40373;SDS011;26079;45.958;12.492;2023-02-26T04:36:43;0.30;;;0.30;;
40373;SDS011;26079;45.958;12.492;2023-02-26T04:39:09;0.10;;;0.10;;
40373;SDS011;26079;45.958;12.492;2023-02-26T04:41:35;0.15;;;0.10;;
40373;SDS011;26079;45.958;12.492;2023-02-26T04:44:02;0.17;;;0.17;;
40373;SDS011;26079;45.958;12.492;2023-02-26T04:46:28;0.10;;;0.10;;
40373;SDS011;26079;45.958;12.492;2023-02-26T04:48:54;0.20;;;0.20;;
40373;SDS011;26079;45.958;12.492;2023-02-26T04:51:20;0.10;;;0.10;;
40373;SDS011;26079;45.958;12.492;2023-02-26T04:53:45;0.10;;;0.03;;
40373;SDS011;26079;45.958;12.492;2023-02-26T04:56:11;0.10;;;0.10;;
40373;SDS011;26079;45.958;12.492;2023-02-26T04:58:37;0.20;;;0.20;;
40373;SDS011;26079;45.958;12.492;2023-02-26T05:01:03;0.32;;;0.20;;
40373;SDS011;26079;45.958;12.492;2023-02-26T05:03:29;0.20;;;0.20;;
40373;SDS011;26079;45.958;12.492;2023-02-26T05:05:54;0.10;;;0.10;;
40373;SDS011;26079;45.958;12.492;2023-02-26T05:08:20;0.30;;;0.30;;
40373;SDS011;26079;45.958;12.492;2023-02-26T05:10:46;0.43;;;0.43;;
40373;SDS011;26079;45.958;12.492;2023-02-26T05:13:11;0.30;;;0.28;;
40373;SDS011;26079;45.958;12.492;2023-02-26T05:15:37;0.65;;;0.65;;
40373;SDS011;26079;45.958;12.492;2023-02-26T05:20:50;0.17;;;0.17;;
40373;SDS011;26079;45.958;12.492;2023-02-26T05:23:20;0.15;;;0.15;;
40373;SDS011;26079;45.958;12.492;2023-02-26T05:25:46;0.57;;;0.30;;
40373;SDS011;26079;45.958;12.492;2023-02-26T05:28:12;1.00;;;0.40;;
40373;SDS011;26079;45.958;12.492;2023-02-26T05:30:39;0.90;;;0.40;;
40373;SDS011;26079;45.958;12.492;2023-02-26T05:33:05;1.50;;;0.40;;
40373;SDS011;26079;45.958;12.492;2023-02-26T05:35:31;0.88;;;0.35;;
40373;SDS011;26079;45.958;12.492;2023-02-26T05:37:57;0.17;;;0.17;;
40373;SDS011;26079;45.958;12.492;2023-02-26T05:40:22;0.45;;;0.20;;
40373;SDS011;26079;45.958;12.492;2023-02-26T05:42:48;2.45;;;0.22;;
40373;SDS011;26079;45.958;12.492;2023-02-26T05:45:16;0.28;;;0.10;;
40373;SDS011;26079;45.958;12.492;2023-02-26T05:47:42;0.10;;;0.10;;
40373;SDS011;26079;45.958;12.492;2023-02-26T05:50:07;0.10;;;0.10;;
40373;SDS011;26079;45.958;12.492;2023-02-26T05:52:34;0.73;;;0.20;;
40373;SDS011;26079;45.958;12.492;2023-02-26T05:55:00;0.32;;;0.10;;
40373;SDS011;26079;45.958;12.492;2023-02-26T05:57:26;0.20;;;0.20;;
40373;SDS011;26079;45.958;12.492;2023-02-26T05:59:52;0.15;;;0.10;;
40373;SDS011;26079;45.958;12.492;2023-02-26T06:02:18;0.20;;;0.20;;
40373;SDS011;26079;45.958;12.492;2023-02-26T06:04:44;3.20;;;0.30;;
40373;SDS011;26079;45.958;12.492;2023-02-26T06:07:09;1.23;;;0.20;;
40373;SDS011;26079;45.958;12.492;2023-02-26T06:09:35;0.20;;;0.10;;
40373;SDS011;26079;45.958;12.492;2023-02-26T06:12:01;0.40;;;0.40;;
40373;SDS011;26079;45.958;12.492;2023-02-26T06:14:26;0.20;;;0.20;;
40373;SDS011;26079;45.958;12.492;2023-02-26T06:16:52;1.10;;;0.30;;
40373;SDS011;26079;45.958;12.492;2023-02-26T06:19:18;0.73;;;0.40;;
40373;SDS011;26079;45.958;12.492;2023-02-26T06:21:45;0.63;;;0.35;;
40373;SDS011;26079;45.958;12.492;2023-02-26T06:24:11;0.63;;;0.30;;
40373;SDS011;26079;45.958;12.492;2023-02-26T06:26:37;0.82;;;0.50;;
40373;SDS011;26079;45.958;12.492;2023-02-26T06:29:02;0.45;;;0.38;;
40373;SDS011;26079;45.958;12.492;2023-02-26T06:31:28;0.50;;;0.30;;
40373;SDS011;26079;45.958;12.492;2023-02-26T06:33:54;0.60;;;0.50;;
40373;SDS011;26079;45.958;12.492;2023-02-26T06:36:20;0.75;;;0.60;;
40373;SDS011;26079;45.958;12.492;2023-02-26T06:38:45;1.00;;;0.40;;
40373;SDS011;26079;45.958;12.492;2023-02-26T06:41:11;1.17;;;0.40;;
40373;SDS011;26079;45.958;12.492;2023-02-26T06:43:38;1.02;;;0.38;;
40373;SDS011;26079;45.958;12.492;2023-02-26T06:46:04;0.10;;;0.10;;
40373;SDS011;26079;45.958;12.492;2023-02-26T06:48:30;0.40;;;0.13;;
40373;SDS011;26079;45.958;12.492;2023-02-26T06:50:56;0.55;;;0.17;;
40373;SDS011;26079;45.958;12.492;2023-02-26T06:53:22;0.28;;;0.20;;
40373;SDS011;26079;45.958;12.492;2023-02-26T06:55:49;0.20;;;0.20;;
40373;SDS011;26079;45.958;12.492;2023-02-26T06:58:15;0.80;;;0.60;;
40373;SDS011;26079;45.958;12.492;2023-02-26T07:00:41;1.52;;;0.32;;
40373;SDS011;26079;45.958;12.492;2023-02-26T07:03:11;1.65;;;0.40;;
40373;SDS011;26079;45.958;12.492;2023-02-26T07:05:38;0.63;;;0.60;;
40373;SDS011;26079;45.958;12.492;2023-02-26T07:08:04;0.40;;;0.20;;
40373;SDS011;26079;45.958;12.492;2023-02-26T07:10:33;5.00;;;0.20;;
40373;SDS011;26079;45.958;12.492;2023-02-26T07:13:00;1.40;;;0.50;;
40373;SDS011;26079;45.958;12.492;2023-02-26T07:15:26;3.08;;;1.52;;
40373;SDS011;26079;45.958;12.492;2023-02-26T07:17:53;0.90;;;0.50;;
40373;SDS011;26079;45.958;12.492;2023-02-26T07:20:18;0.50;;;0.40;;
40373;SDS011;26079;45.958;12.492;2023-02-26T07:22:44;0.90;;;0.50;;
40373;SDS011;26079;45.958;12.492;2023-02-26T07:25:11;3.03;;;1.65;;
40373;SDS011;26079;45.958;12.492;2023-02-26T07:27:37;1.17;;;0.93;;
40373;SDS011;26079;45.958;12.492;2023-02-26T07:30:04;0.50;;;0.50;;
40373;SDS011;26079;45.958;12.492;2023-02-26T07:32:30;4.95;;;1.98;;
40373;SDS011;26079;45.958;12.492;2023-02-26T07:34:56;1.60;;;1.10;;
40373;SDS011;26079;45.958;12.492;2023-02-26T07:37:22;0.52;;;0.50;;
40373;SDS011;26079;45.958;12.492;2023-02-26T07:39:49;5.35;;;4.72;;
40373;SDS011;26079;45.958;12.492;2023-02-26T07:42:14;4.18;;;3.78;;
40373;SDS011;26079;45.958;12.492;2023-02-26T07:44:41;9.45;;;8.35;;
40373;SDS011;26079;45.958;12.492;2023-02-26T07:47:06;14.45;;;11.43;;
40373;SDS011;26079;45.958;12.492;2023-02-26T07:49:32;6.35;;;5.65;;
40373;SDS011;26079;45.958;12.492;2023-02-26T07:51:58;5.03;;;4.53;;
40373;SDS011;26079;45.958;12.492;2023-02-26T07:54:24;6.00;;;5.25;;
40373;SDS011;26079;45.958;12.492;2023-02-26T07:56:50;0.80;;;0.77;;
40373;SDS011;26079;45.958;12.492;2023-02-26T07:59:16;3.45;;;0.60;;
40373;SDS011;26079;45.958;12.492;2023-02-26T08:01:42;0.68;;;0.30;;
40373;SDS011;26079;45.958;12.492;2023-02-26T08:04:08;0.80;;;0.60;;
40373;SDS011;26079;45.958;12.492;2023-02-26T08:08:09;1.48;;;1.13;;
40373;SDS011;26079;45.958;12.492;2023-02-26T08:10:35;4.07;;;1.75;;
40373;SDS011;26079;45.958;12.492;2023-02-26T08:13:01;0.60;;;0.40;;
40373;SDS011;26079;45.958;12.492;2023-02-26T08:15:52;1.15;;;0.68;;
40373;SDS011;26079;45.958;12.492;2023-02-26T08:18:18;0.93;;;0.45;;
40373;SDS011;26079;45.958;12.492;2023-02-26T08:20:44;0.30;;;0.20;;
40373;SDS011;26079;45.958;12.492;2023-02-26T08:23:10;0.40;;;0.40;;
40373;SDS011;26079;45.958;12.492;2023-02-26T08:25:36;9.40;;;0.95;;
40373;SDS011;26079;45.958;12.492;2023-02-26T08:28:02;2.13;;;0.30;;
40373;SDS011;26079;45.958;12.492;2023-02-26T08:30:28;4.57;;;0.40;;
40373;SDS011;26079;45.958;12.492;2023-02-26T08:32:54;0.43;;;0.32;;
40373;SDS011;26079;45.958;12.492;2023-02-26T08:35:20;0.57;;;0.52;;
40373;SDS011;26079;45.958;12.492;2023-02-26T08:37:46;1.38;;;0.95;;
40373;SDS011;26079;45.958;12.492;2023-02-26T08:40:12;0.50;;;0.22;;
40373;SDS011;26079;45.958;12.492;2023-02-26T08:42:38;0.80;;;0.28;;
40373;SDS011;26079;45.958;12.492;2023-02-26T08:45:04;0.45;;;0.38;;
40373;SDS011;26079;45.958;12.492;2023-02-26T08:47:31;0.82;;;0.40;;
40373;SDS011;26079;45.958;12.492;2023-02-26T08:49:56;1.48;;;1.15;;
40373;SDS011;26079;45.958;12.492;2023-02-26T08:52:23;0.45;;;0.40;;
40373;SDS011;26079;45.958;12.492;2023-02-26T08:54:48;0.43;;;0.32;;
40373;SDS011;26079;45.958;12.492;2023-02-26T08:57:15;0.20;;;0.20;;
40373;SDS011;26079;45.958;12.492;2023-02-26T08:59:40;0.63;;;0.63;;
40373;SDS011;26079;45.958;12.492;2023-02-26T09:02:06;0.68;;;0.65;;
40373;SDS011;26079;45.958;12.492;2023-02-26T09:04:34;0.60;;;0.55;;
40373;SDS011;26079;45.958;12.492;2023-02-26T09:06:59;0.38;;;0.30;;
40373;SDS011;26079;45.958;12.492;2023-02-26T09:09:25;3.60;;;0.45;;
40373;SDS011;26079;45.958;12.492;2023-02-26T09:11:51;0.60;;;0.20;;
40373;SDS011;26079;45.958;12.492;2023-02-26T09:14:16;0.45;;;0.20;;
40373;SDS011;26079;45.958;12.492;2023-02-26T09:16:42;0.40;;;0.22;;
40373;SDS011;26079;45.958;12.492;2023-02-26T09:19:11;1.90;;;1.35;;
40373;SDS011;26079;45.958;12.492;2023-02-26T09:21:37;2.55;;;1.50;;
40373;SDS011;26079;45.958;12.492;2023-02-26T09:24:02;1.80;;;0.88;;
40373;SDS011;26079;45.958;12.492;2023-02-26T09:26:28;0.70;;;0.60;;
40373;SDS011;26079;45.958;12.492;2023-02-26T09:28:54;0.82;;;0.50;;
40373;SDS011;26079;45.958;12.492;2023-02-26T09:31:20;0.57;;;0.40;;
40373;SDS011;26079;45.958;12.492;2023-02-26T09:33:45;0.63;;;0.40;;
40373;SDS011;26079;45.958;12.492;2023-02-26T09:36:11;1.08;;;0.98;;
40373;SDS011;26079;45.958;12.492;2023-02-26T09:38:37;3.15;;;2.10;;
40373;SDS011;26079;45.958;12.492;2023-02-26T09:41:06;0.95;;;0.80;;
40373;SDS011;26079;45.958;12.492;2023-02-26T09:47:22;7.85;;;6.60;;
40373;SDS011;26079;45.958;12.492;2023-02-26T09:52:17;1.63;;;1.00;;
40373;SDS011;26079;45.958;12.492;2023-02-26T09:54:48;1.05;;;0.95;;
40373;SDS011;26079;45.958;12.492;2023-02-26T09:57:24;1.45;;;1.08;;
40373;SDS011;26079;45.958;12.492;2023-02-26T09:59:51;3.10;;;1.77;;
40373;SDS011;26079;45.958;12.492;2023-02-26T10:05:09;4.35;;;1.30;;
40373;SDS011;26079;45.958;12.492;2023-02-26T10:16:10;2.25;;;0.40;;
40373;SDS011;26079;45.958;12.492;2023-02-26T10:18:45;1.20;;;0.77;;
40373;SDS011;26079;45.958;12.492;2023-02-26T10:21:39;1.40;;;0.52;;
40373;SDS011;26079;45.958;12.492;2023-02-26T10:24:13;1.13;;;0.80;;
40373;SDS011;26079;45.958;12.492;2023-02-26T10:26:52;1.10;;;0.95;;
40373;SDS011;26079;45.958;12.492;2023-02-26T10:29:27;3.13;;;2.15;;
40373;SDS011;26079;45.958;12.492;2023-02-26T10:35:05;1.13;;;0.77;;
40373;SDS011;26079;45.958;12.492;2023-02-26T10:40:26;2.97;;;1.95;;
40373;SDS011;26079;45.958;12.492;2023-02-26T10:42:58;0.80;;;0.60;;
40373;SDS011;26079;45.958;12.492;2023-02-26T10:48:09;0.50;;;0.50;;
40373;SDS011;26079;45.958;12.492;2023-02-26T10:50:37;1.15;;;0.68;;
40373;SDS011;26079;45.958;12.492;2023-02-26T10:53:07;0.40;;;0.25;;
40373;SDS011;26079;45.958;12.492;2023-02-26T10:55:56;1.52;;;0.75;;
40373;SDS011;26079;45.958;12.492;2023-02-26T10:58:29;0.90;;;0.57;;
40373;SDS011;26079;45.958;12.492;2023-02-26T11:00:55;1.48;;;1.02;;
